Latest Weather Observations for Murrurundi Gap

IDN60801

Issued at 4:53 am EDT Friday 23 February 2024 (issued every 10 minutes, with the page automatically refreshed every 10 minutes)

About weather observations | Map of weather stations | Latest weather observations for NSW | Other Formats
Station Details ID: 061392 Name: MURRURUNDI GAP AWS Lat: -31.74 Lon: 150.79 Height: 729.4 m
Data from the previous 72 hours. | See also: Recent months at Murrurundi Gap
Date/Time
EDT
Temp
°C
App
Temp
°C
Dew
Point
°C
Rel
Hum
%
Delta-T
°C
Wind Press
QNH
hPa
Press
MSL
hPa
Rain since
9am
mm
Dir  Spd
km/h
Gust
km/h
Spd
kts
Gust
kts
23/04:30am 20.8 18.5 15.8 73 3.1 NW 22 26 12 14 1013.8 1009.9 0.0
23/04:00am 21.0 19.0 15.5 71 3.4 NW 20 24 11 13 1013.9 1010.0 0.0
23/03:30am 21.1 19.3 15.6 71 3.4 NW 19 22 10 12 1014.1 1010.2 0.0
23/03:00am 21.1 19.5 15.9 72 3.2 NW 19 20 10 11 1014.5 1010.5 0.0
23/02:30am 20.9 19.1 15.9 73 3.1 NW 20 24 11 13 1014.6 1010.6 0.0
23/02:00am 21.1 19.0 16.1 73 3.1 NW 22 26 12 14 1014.6 1010.6 0.0
23/01:30am 21.7 20.0 15.8 69 3.7 WNW 19 20 10 11 1014.9 1011.0 0.0
23/01:00am 22.1 20.5 15.9 68 3.8 WNW 19 20 10 11 1015.0 1011.1 0.0
23/12:30am 21.9 20.7 16.0 69 3.7 NW 17 20 9 11 1015.1 1011.2 0.0
23/12:00am 22.5 20.9 16.1 67 4.0 WNW 19 20 10 11 1015.5 1011.6 0.0
 
Date/Time
EDT
Temp
°C
App
Temp
°C
Dew
Point
°C
Rel
Hum
%
Delta-T
°C
Wind Press
QNH
hPa
Press
MSL
hPa
Rain since
9am
mm
Dir  Spd
km/h
Gust
km/h
Spd
kts
Gust
kts
22/11:30pm 23.3 21.3 15.6 62 4.8 NW 20 26 11 14 1015.8 1011.8 0.0
22/11:00pm 23.4 22.4 15.5 61 4.9 NW 15 19 8 10 1015.9 1011.9 0.0
22/10:30pm 24.9 23.9 15.5 56 5.9 W 15 19 8 10 1016.4 1012.5 0.0
22/10:00pm 24.7 23.5 15.1 55 5.9 NW 15 17 8 9 1015.9 1011.9 0.0
22/09:30pm 25.5 23.9 14.9 52 6.6 NW 17 20 9 11 1015.5 1011.6 0.0
22/09:00pm 25.8 24.9 14.9 51 6.8 NW 13 17 7 9 1015.3 1011.4 0.0
22/08:30pm 26.2 24.5 14.6 48 7.2 N 17 22 9 12 1015.0 1011.1 0.0
22/08:00pm 27.4 28.3 13.0 41 8.7 CALM 0 7 0 4 1014.6 1010.6 0.0
22/07:30pm 27.6 27.5 13.2 41 8.7 W 6 9 3 5 1014.5 1010.5 0.0
22/07:00pm 29.3 29.6 15.1 42 8.9 WSW 7 11 4 6 1014.0 1010.1 0.0
22/06:30pm 28.4 27.2 13.9 41 8.9 W 13 17 7 9 1013.9 1010.0 0.0
22/06:00pm 30.2 28.7 14.3 38 9.9 WNW 15 20 8 11 1013.7 1009.8 0.0
22/05:30pm 30.1 29.7 14.2 38 9.9 NW 9 17 5 9 1013.5 1009.6 0.0
22/05:00pm 29.5 27.1 13.7 38 9.7 NW 19 32 10 17 1013.4 1009.4 0.0
22/04:30pm 29.6 27.0 13.8 38 9.8 WNW 20 30 11 16 1013.5 1009.6 0.0
22/04:00pm 29.4 29.2 14.8 41 9.2 W 9 24 5 13 1013.9 1010.0 0.0
22/03:30pm 29.7 30.0 17.8 48 7.8 S 13 19 7 10 1014.3 1010.3 0.0
22/03:00pm 28.5 27.8 15.4 45 8.3 W 13 20 7 11 1014.9 1011.0 0.0
22/02:30pm 29.0 28.0 16.5 46 8.0 NW 17 30 9 16 1015.2 1011.3 0.0
22/02:00pm 27.7 28.1 16.3 49 7.3 W 9 17 5 9 1015.6 1011.7 0.0
22/01:30pm 27.3 25.8 16.3 51 7.0 NNW 19 26 10 14 1016.1 1012.2 0.0
22/01:00pm 27.4 26.4 17.6 55 6.4 NW 19 26 10 14 1016.5 1012.6 0.0
22/12:30pm 26.0 24.6 17.1 58 5.7 NW 20 28 11 15 1016.9 1013.0 0.0
22/12:00pm 26.8 26.4 19.4 64 4.9 NW 20 28 11 15 1017.4 1013.5 0.0
22/11:30am 25.3 23.4 17.7 62 4.9 NW 24 33 13 18 1017.7 1013.8 0.0
22/11:00am 24.1 22.2 17.6 67 4.2 NW 24 35 13 19 1017.9 1014.0 0.0
22/10:30am 23.9 21.1 17.4 67 4.2 NW 28 37 15 20 1017.9 1014.0 0.0
22/10:00am 23.8 21.8 17.5 68 4.0 NNW 24 33 13 18 1018.1 1014.2 0.0
22/09:30am 23.1 21.9 17.6 71 3.5 NNW 20 26 11 14 1018.1 1014.2 0.0
22/09:00am 22.1 20.7 17.0 73 3.2 NW 20 24 11 13 1018.1 1014.2 0.0
22/08:30am 20.7 19.7 16.7 78 2.5 NW 17 20 9 11 1017.8 1013.9 0.0
22/08:00am 20.2 19.8 16.2 78 2.5 WNW 13 17 7 9 1017.7 1013.8 0.0
22/07:30am 19.9 19.6 16.5 81 2.1 NW 13 15 7 8 1017.5 1013.6 0.0
22/07:00am 16.8 18.7 16.8 100 0.0 ESE 2 7 1 4 1017.3 1013.4 0.0
22/06:30am 16.9 18.5 16.9 100 0.0 ESE 4 7 2 4 1016.9 1013.0 0.0
22/06:15am 16.7 17.3 16.7 100 0.0 SE 9 9 5 5 1016.8 1012.9 0.0
22/06:07am 16.8 17.4 16.8 100 0.0 ESE 9 11 5 6 1016.7 1012.8 0.0
22/06:03am 16.7 17.3 16.7 100 0.0 ESE 9 11 5 6 1016.7 1012.8 0.0
22/06:00am 16.6 17.1 16.6 100 0.0 ESE 9 11 5 6 1016.6 1012.7 0.0
22/05:30am 16.6 16.7 16.6 100 0.0 ESE 11 13 6 7 1016.4 1012.5 0.0
22/05:00am 16.7 16.5 16.7 100 0.0 ESE 13 15 7 8 1016.3 1012.4 0.0
22/04:30am 16.8 16.3 16.8 100 0.0 SE 15 15 8 8 1016.2 1012.3 0.0
22/04:18am 16.9 16.8 16.9 100 0.0 SE 13 15 7 8 1016.2 1012.3 0.0
22/04:12am 16.8 16.6 16.8 100 0.0 ESE 13 15 7 8 1016.2 1012.3 0.0
22/04:04am 16.8 16.6 16.8 100 0.0 SE 13 15 7 8 1016.3 1012.4 0.0
22/04:00am 16.7 16.5 16.7 100 0.0 SE 13 15 7 8 1016.3 1012.4 0.0
22/03:30am 16.9 16.7 16.7 99 0.1 SE 13 15 7 8 1016.5 1012.6 0.0
22/03:00am 17.4 16.9 16.8 96 0.4 ESE 15 15 8 8 1016.5 1012.6 0.0
22/02:30am 17.7 16.7 16.7 94 0.6 SE 17 17 9 9 1016.7 1012.8 0.0
22/02:00am 17.8 16.9 16.8 94 0.6 ESE 17 19 9 10 1016.8 1012.9 0.0
22/01:30am 18.4 17.5 16.9 91 0.9 SE 17 20 9 11 1017.1 1013.2 0.0
22/01:00am 18.6 17.1 16.8 89 1.1 SE 20 24 11 13 1017.4 1013.5 0.0
22/12:30am 19.0 17.6 17.1 89 1.2 SE 20 24 11 13 1017.6 1013.7 0.0
22/12:00am 18.7 17.2 16.7 88 1.2 ESE 20 22 11 12 1017.7 1013.8 0.0
 
Date/Time
EDT
Temp
°C
App
Temp
°C
Dew
Point
°C
Rel
Hum
%
Delta-T
°C
Wind Press
QNH
hPa
Press
MSL
hPa
Rain since
9am
mm
Dir  Spd
km/h
Gust
km/h
Spd
kts
Gust
kts
21/11:30pm 19.5 17.2 16.7 84 1.7 SE 24 28 13 15 1017.7 1013.8 0.0
21/11:00pm 19.7 17.5 16.9 84 1.7 SE 24 28 13 15 1017.7 1013.8 0.0
21/10:30pm 20.0 17.4 16.8 82 2.0 SE 26 30 14 16 1017.7 1013.8 0.0
21/10:00pm 20.2 18.0 17.0 82 2.0 SE 24 30 13 16 1017.5 1013.6 0.0
21/09:30pm 20.4 18.2 16.8 80 2.3 SE 24 32 13 17 1017.1 1013.2 0.0
21/09:00pm 20.8 18.1 16.6 77 2.6 SSE 26 35 14 19 1017.0 1013.1 0.0
21/08:30pm 21.0 18.1 16.2 74 3.0 SE 26 33 14 18 1016.7 1012.8 0.0
21/08:00pm 21.6 18.6 15.9 70 3.5 SE 26 33 14 18 1016.3 1012.4 0.0
21/07:30pm 22.1 19.2 16.1 69 3.7 SE 26 32 14 17 1016.0 1012.1 0.0
21/07:00pm 22.9 20.1 16.4 66 4.1 SE 26 33 14 18 1015.6 1011.7 0.0
21/06:30pm 23.6 20.7 16.1 62 4.7 SE 26 37 14 20 1015.4 1011.5 0.0
21/06:00pm 24.5 22.2 15.7 58 5.5 SE 22 32 12 17 1015.3 1011.4 0.0
21/05:30pm 25.0 23.1 15.3 55 6.0 SSE 19 30 10 16 1015.2 1011.3 0.0
21/05:00pm 25.7 24.5 17.1 59 5.5 SSE 19 28 10 15 1015.5 1011.6 0.0
21/04:30pm 25.5 23.4 16.1 56 5.9 ESE 22 33 12 18 1015.5 1011.6 0.0
21/04:00pm 25.2 22.3 16.1 57 5.7 ESE 26 35 14 19 1015.8 1011.8 0.0
21/03:30pm 25.6 23.8 17.0 59 5.5 E 22 30 12 16 1016.1 1012.2 0.0
21/03:00pm 25.5 24.2 17.2 60 5.3 ESE 20 26 11 14 1016.4 1012.5 0.0
21/02:30pm 26.2 25.7 19.1 65 4.7 E 20 24 11 13 1016.8 1012.9 0.0
21/02:00pm 24.3 24.8 17.5 66 4.4 SE 11 17 6 9 1017.1 1013.2 0.0
21/01:30pm 24.8 25.4 16.8 61 5.1 SE 9 13 5 7 1017.4 1013.5 0.0
21/01:00pm 25.0 25.7 16.2 58 5.5 N 7 11 4 6 1017.5 1013.6 0.0
21/12:30pm 25.2 26.6 17.9 64 4.7 E 7 13 4 7 1017.8 1013.9 0.0
21/12:00pm 24.6 25.2 17.6 65 4.5 SE 11 17 6 9 1017.9 1014.0 0.0
21/11:30am 23.3 24.2 18.4 74 3.2 E 11 17 6 9 1018.3 1014.4 0.0
21/11:00am 23.3 25.1 18.8 76 2.9 E 7 13 4 7 1018.8 1014.9 0.0
21/10:30am 21.1 21.9 18.1 83 1.9 E 11 15 6 8 1018.9 1015.0 0.0
21/10:08am 17.6 17.1 15.9 90 1.0 ESE 13 19 7 10 1019.0 1015.1 0.0
21/10:00am 17.5 16.9 16.7 95 0.5 ESE 15 19 8 10 1019.1 1015.2 0.0
21/09:30am 16.5 14.9 16.5 100 0.0 SE 20 24 11 13 1019.2 1015.3 0.0
21/09:00am 16.0 14.2 16.0 100 0.0 SE 20 24 11 13 1018.8 1014.9 0.0
21/08:53am 16.0 14.2 16.0 100 0.0 SE 20 26 11 14 1018.7 1014.8 0.0
21/08:36am 16.2 14.5 16.2 100 0.0 SE 20 24 11 13 1018.5 1014.7 0.0
21/08:30am 16.3 14.8 16.3 100 0.0 SE 19 22 10 12 1018.5 1014.7 0.0
21/08:00am 16.0 14.8 16.0 100 0.0 ESE 17 20 9 11 1018.4 1014.6 0.0
21/07:30am 15.9 14.3 15.9 100 0.0 SE 19 22 10 12 1018.2 1014.3 0.0
21/07:00am 15.7 13.8 15.7 100 0.0 SE 20 26 11 14 1017.8 1013.9 0.0
21/06:30am 15.6 13.8 15.6 100 0.0 SE 19 22 10 12 1017.6 1013.7 0.0
21/06:00am 15.4 13.4 15.4 100 0.0 SE 20 24 11 13 1017.3 1013.4 0.0
21/05:30am 15.3 13.2 15.3 100 0.0 SE 20 22 11 12 1017.0 1013.1 0.0
21/05:00am 15.5 13.7 15.5 100 0.0 SE 19 24 10 13 1016.9 1013.0 0.0
21/04:30am 15.7 14.0 15.7 100 0.0 SE 19 20 10 11 1016.8 1012.9 0.0
21/04:00am 15.7 13.4 15.7 100 0.0 SE 22 26 12 14 1016.5 1012.6 0.0
21/03:30am 15.8 13.5 15.8 100 0.0 SE 22 28 12 15 1016.4 1012.5 0.0
21/03:00am 15.7 13.4 15.7 100 0.0 SE 22 26 12 14 1016.5 1012.6 0.0
21/02:30am 15.7 13.4 15.7 100 0.0 ESE 22 26 12 14 1016.5 1012.6 0.0
21/02:00am 15.9 13.7 15.9 100 0.0 SE 22 26 12 14 1016.9 1013.0 0.0
21/01:51am 15.9 13.7 15.9 100 0.0 SE 22 28 12 15 1016.9 1013.0 0.0
21/01:36am 15.9 13.3 15.9 100 0.0 SE 24 30 13 16 1016.9 1013.0 0.0
21/01:30am 16.1 13.2 16.1 100 0.0 SE 26 32 14 17 1016.9 1013.0 0.0
21/01:00am 16.4 13.2 16.4 100 0.0 SE 28 32 15 17 1017.4 1013.5 0.0
21/12:56am 16.3 13.1 16.3 100 0.0 SE 28 32 15 17 1017.4 1013.5 0.0
21/12:30am 16.4 12.9 16.4 100 0.0 SE 30 35 16 19 1017.6 1013.7 0.0
21/12:09am 16.6 13.1 16.6 100 0.0 SE 30 35 16 19 1017.7 1013.8 0.0
21/12:00am 16.7 13.3 16.7 100 0.0 SE 30 35 16 19 1017.7 1013.8 0.0
 
Date/Time
EDT
Temp
°C
App
Temp
°C
Dew
Point
°C
Rel
Hum
%
Delta-T
°C
Wind Press
QNH
hPa
Press
MSL
hPa
Rain since
9am
mm
Dir  Spd
km/h
Gust
km/h
Spd
kts
Gust
kts
20/11:30pm 17.0 13.3 17.0 100 0.0 SE 32 35 17 19 1018.0 1014.1 0.0
20/11:28pm 17.1 13.5 17.1 100 0.0 SE 32 35 17 19 1018.0 1014.1 0.0
20/11:00pm 17.2 13.5 17.0 99 0.1 SE 32 41 17 22 1018.0 1014.1 0.0
20/10:30pm 17.2 13.3 17.0 99 0.1 SE 33 39 18 21 1018.1 1014.2 0.0
20/10:29pm 17.2 13.3 17.0 99 0.1 SE 33 39 18 21 1018.1 1014.2 0.0
20/10:00pm 17.2 13.9 16.9 98 0.2 SE 30 37 16 20 1018.0 1014.1 0.0
20/09:59pm 17.2 13.9 16.9 98 0.2 SE 30 39 16 21 1018.0 1014.1 0.0
20/09:30pm 17.3 13.9 16.8 97 0.3 SSE 30 37 16 20 1017.8 1013.9 0.0
20/09:00pm 17.6 14.2 16.8 95 0.5 SSE 30 35 16 19 1017.7 1013.8 0.0
20/08:30pm 18.1 15.2 17.1 94 0.6 SE 28 37 15 20 1017.5 1013.6 0.0
20/08:00pm 18.7 15.6 17.4 92 0.8 SE 30 39 16 21 1016.9 1013.0 0.0
20/07:30pm 19.3 16.5 17.3 88 1.3 SSE 28 35 15 19 1016.5 1012.6 0.0
20/07:00pm 20.1 17.1 16.9 82 2.0 SE 28 35 15 19 1016.2 1012.3 0.0
20/06:30pm 20.7 18.4 16.7 78 2.5 SE 24 33 13 18 1016.4 1012.5 0.0
20/06:00pm 20.7 18.3 16.3 76 2.7 SSE 24 32 13 17 1016.3 1012.4 0.0
20/05:30pm 21.8 19.4 16.5 72 3.3 SE 24 33 13 18 1016.3 1012.4 0.0
20/05:00pm 20.9 18.4 16.1 74 3.0 SSE 24 33 13 18 1016.5 1012.6 0.0
20/04:30pm 21.8 19.7 16.3 71 3.4 SE 22 30 12 16 1016.5 1012.6 0.0
20/04:00pm 21.8 20.6 17.6 77 2.7 SE 20 28 11 15 1016.7 1012.8 0.0
20/03:30pm 21.6 19.2 15.4 68 3.8 ESE 22 32 12 17 1016.8 1012.9 0.0
20/03:00pm 22.8 20.6 16.8 69 3.8 SE 24 33 13 18 1017.0 1013.1 0.0
20/02:30pm 21.3 19.5 16.0 72 3.3 SSE 20 30 11 16 1017.4 1013.5 0.0
20/02:00pm 23.3 21.7 16.4 65 4.3 SE 20 30 11 16 1017.5 1013.6 0.0
20/01:30pm 22.4 20.7 15.7 66 4.2 SE 19 26 10 14 1017.9 1014.0 0.0
20/01:00pm 21.9 20.7 17.5 76 2.8 SSE 20 28 11 15 1018.3 1014.4 0.0
20/12:30pm 21.8 20.3 16.3 71 3.4 SE 19 26 10 14 1018.5 1014.7 0.0
20/12:00pm 22.2 20.1 16.2 69 3.7 ESE 22 30 12 16 1019.0 1015.1 0.0
20/11:30am 21.2 19.2 16.4 74 3.0 SE 22 30 12 16 1019.5 1015.6 0.0
20/11:00am 20.7 17.7 15.9 74 3.0 ESE 26 35 14 19 1019.8 1016.0 0.0
20/10:30am 19.3 16.0 16.0 81 2.0 ESE 28 35 15 19 1019.9 1016.1 0.0
20/10:00am 19.4 17.1 16.6 84 1.7 ESE 24 33 13 18 1019.7 1015.9 0.0
20/09:54am 19.2 17.0 17.0 87 1.4 ESE 24 33 13 18 1019.7 1015.9 0.0
20/09:30am 17.9 14.2 16.1 89 1.1 ESE 30 35 16 19 1019.6 1015.7 0.0
20/09:00am 16.1 12.1 16.1 100 0.0 SE 32 35 17 19 1019.5 1015.6 0.2
20/08:30am 15.1 11.8 15.1 100 0.0 ESE 26 33 14 18 1019.5 1015.6 0.2
20/08:00am 15.2 12.3 15.2 100 0.0 SE 24 30 13 16 1019.1 1015.2 0.2
20/07:48am 14.9 11.9 14.9 100 0.0 ESE 24 32 13 17 1019.2 1015.3 0.2
20/07:30am 14.9 11.9 14.9 100 0.0 SE 24 32 13 17 1019.1 1015.2 0.2
20/07:24am 15.2 12.3 15.2 100 0.0 SE 24 28 13 15 1019.0 1015.1 0.2
20/07:00am 14.2 11.0 14.2 100 0.0 SE 24 30 13 16 1018.8 1014.9 0.2
20/06:30am 14.0 11.1 14.0 100 0.0 SE 22 28 12 15 1018.4 1014.6 0.2
20/06:00am 14.0 11.5 14.0 100 0.0 ESE 20 24 11 13 1018.2 1014.3 0.2
20/05:30am 14.1 10.8 14.1 100 0.0 SE 24 30 13 16 1018.1 1014.2 0.2
20/05:00am 14.2 10.6 14.2 100 0.0 SE 26 32 14 17 1018.1 1014.2 0.2

Other formats

Comma delimited format used in spreadsheet applications
http://www.bom.gov.au/fwo/IDN60801/IDN60801.95747.axf

JavaScript Object Notation format (JSON) in row-major order
http://www.bom.gov.au/fwo/IDN60801/IDN60801.95747.json

Data quality

Most of these data are generated automatically and are frequently updated. Quality checks on data are not normally performed. It is possible for incorrect values to appear. Refer to information at About Latest Weather Observations and please check the disclaimer before using these data.